Daydream Believer — V7XJ3 — position and weather

sailwx.info

Track history (hours):
 
Tides and Currents Weather Stations Pressure Air Temp Water Temp Dewpoint Dewpoint Depression Visibility Wind Speed Wind Dir Waves Ship Positions

Daydream Believer

Last reported at 2015-Apr-12 00:31 UTC. Time now 2015-Apr-18 16:45 UTC.
Position N 37°30' W 123°54'.

Length 178 m; draft 7 m.

Type: Cargo ship. MMSI: 538004493.

Date/timePositionNaut miles runAvg speedWind from/ knotsBaromVisibWave heightAir tempDewpointWater temp
2015-Apr-12 00:31N 37°30' W 123°54'1111.8
2015-Apr-11 23:33N 37°29' W 123°39'1211.8
2015-Apr-11 22:33N 37°29' W 123°24'1211.9
2015-Apr-11 21:33N 37°31' W 123°10'1212.4
2015-Apr-11 20:33N 37°38' W 122°57'1212.2
2015-Apr-11 19:33N 37°44' W 122°43'1110.7
2015-Apr-11 18:33N 37°48' W 122°31'9 8.8
2015-Apr-11 17:33N 37°57' W 122°27'1413.6
2015-Apr-11 16:33N 38°03' W 122°12'1210.3
2015-Apr-11 15:24N 38°03' W 121°56'910.6
2015-Apr-11 14:33N 38°05' W 121°45'11 7.8
2015-Apr-11 13:06N 38°15' W 121°40'4 6.6
2015-Apr-11 12:33N 38°19' W 121°39'10 6.8
2015-Apr-11 11:09N 38°28' W 121°35'5 7.5
2015-Apr-11 10:31N 38°33' W 121°35'2 0.1
2015-Apr-10 06:24N 38°34' W 121°33'  
2015-Apr-02 09:13N 38°21' W 121°38'4 5.7
2015-Apr-02 08:27N 38°17' W 121°39'7 7.6
2015-Apr-02 07:32N 38°10' W 121°40'1010.2
2015-Apr-02 06:32N 38°04' W 121°51'1211.8
2015-Apr-02 05:32N 38°03' W 122°06'1111.3
2015-Apr-02 04:33N 38°03' W 122°20'1212.3
2015-Apr-02 03:33N 37°51' W 122°24'7 7.2
2015-Apr-02 02:33N 37°45' W 122°20'0 0.0
2015-Apr-02 01:31N 37°45' W 122°20'  
Track history (hours):
 
Tides and Currents Weather Stations Pressure Air Temp Water Temp Dewpoint Dewpoint Depression Visibility Wind Speed Wind Dir Waves Ship Positions

Daydream Believer

Last reported at 2015-Apr-12 00:31 UTC. Time now 2015-Apr-18 16:45 UTC.
Position N 37°30' W 123°54'.

Length 178 m; draft 7 m.

Type: Cargo ship. MMSI: 538004493.

Date/timePositionNaut miles runAvg speedWind from/ knotsBaromVisibWave heightAir tempDewpointWater temp
2015-Apr-12 00:31N 37°30' W 123°54'1111.8
2015-Apr-11 23:33N 37°29' W 123°39'1211.8
2015-Apr-11 22:33N 37°29' W 123°24'1211.9
2015-Apr-11 21:33N 37°31' W 123°10'1212.4
2015-Apr-11 20:33N 37°38' W 122°57'1212.2
2015-Apr-11 19:33N 37°44' W 122°43'1110.7
2015-Apr-11 18:33N 37°48' W 122°31'9 8.8
2015-Apr-11 17:33N 37°57' W 122°27'1413.6
2015-Apr-11 16:33N 38°03' W 122°12'1210.3
2015-Apr-11 15:24N 38°03' W 121°56'910.6
2015-Apr-11 14:33N 38°05' W 121°45'11 7.8
2015-Apr-11 13:06N 38°15' W 121°40'4 6.6
2015-Apr-11 12:33N 38°19' W 121°39'10 6.8
2015-Apr-11 11:09N 38°28' W 121°35'5 7.5
2015-Apr-11 10:31N 38°33' W 121°35'2 0.1
2015-Apr-10 06:24N 38°34' W 121°33'  
2015-Apr-02 09:13N 38°21' W 121°38'4 5.7
2015-Apr-02 08:27N 38°17' W 121°39'7 7.6
2015-Apr-02 07:32N 38°10' W 121°40'1010.2
2015-Apr-02 06:32N 38°04' W 121°51'1211.8
2015-Apr-02 05:32N 38°03' W 122°06'1111.3
2015-Apr-02 04:33N 38°03' W 122°20'1212.3
2015-Apr-02 03:33N 37°51' W 122°24'7 7.2
2015-Apr-02 02:33N 37°45' W 122°20'0 0.0
2015-Apr-02 01:31N 37°45' W 122°20'  

Dump ship's entire track history